Time;durP1;ratioP1;P1;durP2;ratioP2;P2;SDS_P1;SDS_P2;PMS_P1;PMS_P2;Temp;Humidity;BMP_temperature;BMP_pressure;BME280_temperature;BME280_humidity;BME280_pressure;Samples;Min_cycle;Max_cycle;Signal;HPM_P1;HPM_P2
2021/05/16 00:02:24;;;;;;;1999.90;999.90;;;12.30;99.90;;;;;;5052627;28;20176;-41
2021/05/16 00:04:51;;;;;;;1999.90;999.90;;;12.50;99.90;;;;;;5052668;28;20657;-55
2021/05/16 00:07:19;;;;;;;1999.90;999.90;;;12.60;99.90;;;;;;5052702;28;20203;-41
2021/05/16 00:09:46;;;;;;;1999.90;999.90;;;12.60;99.90;;;;;;5052676;28;20162;-42
2021/05/16 00:12:13;;;;;;;1999.90;999.90;;;12.70;99.90;;;;;;5052939;28;20177;-41
2021/05/16 00:14:40;;;;;;;1999.90;999.90;;;12.60;99.90;;;;;;5052603;28;20169;-41
2021/05/16 00:17:07;;;;;;;1999.90;999.90;;;12.60;99.90;;;;;;5052635;28;20248;-57
2021/05/16 00:19:34;;;;;;;1999.90;999.90;;;12.60;99.90;;;;;;5052587;28;20169;-42
2021/05/16 00:22:02;;;;;;;1999.90;999.90;;;12.50;99.90;;;;;;5052664;28;20161;-42
2021/05/16 00:24:29;;;;;;;1999.90;999.90;;;12.40;99.90;;;;;;5052510;28;20169;-41
2021/05/16 00:26:56;;;;;;;1999.90;999.90;;;12.30;99.90;;;;;;5052428;28;20546;-57
2021/05/16 00:29:23;;;;;;;1999.90;999.90;;;12.20;99.90;;;;;;5052334;28;20257;-41
2021/05/16 00:31:50;;;;;;;1999.90;999.90;;;12.20;99.90;;;;;;5052697;28;20165;-55
2021/05/16 00:34:17;;;;;;;1999.90;999.90;;;12.10;99.90;;;;;;5056431;28;20165;-57
2021/05/16 00:36:44;;;;;;;1999.90;999.90;;;12.10;99.90;;;;;;5056317;28;20169;-41
2021/05/16 00:39:11;;;;;;;1999.90;999.90;;;12.00;99.90;;;;;;5055067;28;20256;-57
2021/05/16 00:41:38;;;;;;;1999.90;999.90;;;12.00;99.90;;;;;;5056260;28;20188;-54
2021/05/16 00:44:05;;;;;;;1999.90;999.90;;;12.00;99.90;;;;;;5056307;28;20267;-41
2021/05/16 00:46:31;;;;;;;1999.90;999.90;;;12.10;99.90;;;;;;5056249;28;20275;-41
2021/05/16 00:48:58;;;;;;;1999.90;999.90;;;11.90;99.90;;;;;;5056083;28;20276;-41
2021/05/16 00:51:25;;;;;;;1999.90;999.90;;;11.80;99.90;;;;;;5055983;28;20180;-41
2021/05/16 00:53:52;;;;;;;1999.90;999.90;;;11.70;99.90;;;;;;5056006;28;20180;-41
2021/05/16 00:56:19;;;;;;;1999.90;999.90;;;11.70;99.90;;;;;;5055974;28;20251;-41
2021/05/16 00:58:46;;;;;;;1999.90;999.90;;;11.70;99.90;;;;;;5055955;28;20234;-41
2021/05/16 01:01:15;;;;;;;1999.90;999.90;;;11.70;99.90;;;;;;5055867;28;20161;-55
2021/05/16 01:03:41;;;;;;;1999.90;999.90;;;11.60;99.90;;;;;;5055806;28;20645;-41
2021/05/16 01:06:08;;;;;;;1999.90;999.90;;;11.60;99.90;;;;;;5055741;28;20231;-43
2021/05/16 01:08:35;;;;;;;1999.90;999.90;;;11.60;99.90;;;;;;5055909;28;20256;-41
2021/05/16 01:11:02;;;;;;;1999.90;999.90;;;11.60;99.90;;;;;;5055743;28;20226;-41
2021/05/16 01:13:29;;;;;;;1999.90;999.90;;;11.60;99.90;;;;;;5055616;28;20252;-41
2021/05/16 01:15:56;;;;;;;1999.90;999.90;;;11.60;99.90;;;;;;5055606;28;20574;-42
2021/05/16 01:18:22;;;;;;;1999.90;999.90;;;11.60;99.90;;;;;;5055515;28;20168;-41
2021/05/16 01:20:51;;;;;;;1999.90;999.90;;;11.50;99.90;;;;;;5055584;28;20220;-41
2021/05/16 01:23:25;;;;;;;1999.90;999.90;;;11.40;99.90;;;;;;5055489;28;20190;-41
2021/05/16 01:25:52;;;;;;;1999.90;999.90;;;11.50;99.90;;;;;;5055387;28;20209;-44
2021/05/16 01:28:20;;;;;;;1999.90;999.90;;;11.40;99.90;;;;;;5055216;28;20308;-42
2021/05/16 01:30:49;;;;;;;1999.90;999.90;;;11.40;99.90;;;;;;5055365;28;20235;-42
2021/05/16 01:33:17;;;;;;;1999.90;999.90;;;11.40;99.90;;;;;;5055681;28;20573;-43
2021/05/16 01:35:44;;;;;;;1999.90;999.90;;;11.50;99.90;;;;;;5055134;28;20183;-42
2021/05/16 01:38:11;;;;;;;1999.90;999.90;;;11.50;99.90;;;;;;5055185;28;20250;-41
2021/05/16 01:40:40;;;;;;;1999.90;999.90;;;11.60;99.90;;;;;;5055295;28;20205;-44
2021/05/16 01:43:11;;;;;;;1999.90;999.90;;;11.50;99.90;;;;;;5054900;28;20173;-42
2021/05/16 01:45:39;;;;;;;1999.90;999.90;;;11.50;99.90;;;;;;5054539;28;20200;-46
2021/05/16 01:48:07;;;;;;;1999.90;999.90;;;11.50;99.90;;;;;;5055135;28;20524;-41
2021/05/16 01:50:36;;;;;;;1999.90;999.90;;;11.40;99.90;;;;;;5055034;28;20253;-57
2021/05/16 01:53:05;;;;;;;1999.90;999.90;;;11.40;99.90;;;;;;5054891;28;20215;-42
2021/05/16 01:55:33;;;;;;;1999.90;999.90;;;11.40;99.90;;;;;;5054838;28;20169;-42
2021/05/16 01:58:01;;;;;;;1999.90;999.90;;;11.30;99.90;;;;;;5054827;28;20577;-42
2021/05/16 02:00:31;;;;;;;1999.90;999.90;;;11.20;99.90;;;;;;5054797;28;20683;-58
2021/05/16 02:02:58;;;;;;;1999.90;999.90;;;11.20;99.90;;;;;;5054828;28;20172;-42
2021/05/16 02:05:26;;;;;;;1999.90;999.90;;;11.20;99.90;;;;;;5054646;28;20197;-42
2021/05/16 02:07:53;;;;;;;1999.90;999.90;;;11.10;99.90;;;;;;5054713;28;20176;-42
2021/05/16 02:10:21;;;;;;;1999.90;999.90;;;11.10;99.90;;;;;;5054851;28;20173;-42
2021/05/16 02:12:48;;;;;;;1999.90;999.90;;;11.00;99.90;;;;;;5054608;28;20226;-42
2021/05/16 02:15:16;;;;;;;1999.90;999.90;;;11.00;99.90;;;;;;5054487;28;20205;-52
2021/05/16 02:17:43;;;;;;;1999.90;999.90;;;11.00;99.90;;;;;;5054647;28;20170;-43
2021/05/16 02:20:15;;;;;;;1999.90;999.90;;;10.90;99.90;;;;;;5054482;28;20173;-42
2021/05/16 02:22:42;;;;;;;1999.90;999.90;;;10.90;99.90;;;;;;5054502;28;20154;-42
2021/05/16 02:25:09;;;;;;;1999.90;999.90;;;10.80;99.90;;;;;;5054340;28;20196;-42
2021/05/16 02:27:36;;;;;;;1999.90;999.90;;;10.70;99.90;;;;;;5054082;28;20664;-57
2021/05/16 02:30:08;;;;;;;1999.90;999.90;;;10.70;99.90;;;;;;5054343;28;20162;-42
2021/05/16 02:32:36;;;;;;;1999.90;999.90;;;10.70;99.90;;;;;;5054125;28;20169;-57
2021/05/16 02:35:05;;;;;;;1999.90;999.90;;;10.70;99.90;;;;;;5054094;28;20177;-42
2021/05/16 02:37:32;;;;;;;1999.90;999.90;;;10.80;99.90;;;;;;5054099;28;20587;-43
2021/05/16 02:39:58;;;;;;;1999.90;999.90;;;10.80;99.90;;;;;;5053955;28;20173;-44
2021/05/16 02:42:25;;;;;;;1999.90;999.90;;;10.70;99.90;;;;;;5054054;28;20178;-43
2021/05/16 02:44:52;;;;;;;1999.90;999.90;;;10.70;99.90;;;;;;5053852;28;20169;-42
2021/05/16 02:47:19;;;;;;;1999.90;999.90;;;10.70;99.90;;;;;;5053892;28;20179;-42
2021/05/16 02:49:46;;;;;;;1999.90;999.90;;;10.60;99.90;;;;;;5053994;28;20165;-57
2021/05/16 02:52:12;;;;;;;1999.90;999.90;;;10.60;99.90;;;;;;5053888;28;20196;-42
2021/05/16 02:54:39;;;;;;;1999.90;999.90;;;10.60;99.90;;;;;;5053426;28;20566;-42
2021/05/16 02:57:06;;;;;;;1999.90;999.90;;;10.60;99.90;;;;;;5053674;28;20761;-42
2021/05/16 02:59:33;;;;;;;1999.90;999.90;;;10.60;99.90;;;;;;5053726;28;20169;-43
2021/05/16 03:02:01;;;;;;;1999.90;999.90;;;10.60;99.90;;;;;;5053593;28;20198;-42
2021/05/16 03:04:28;;;;;;;1999.90;999.90;;;10.50;99.90;;;;;;5053544;28;20264;-57
2021/05/16 03:06:55;;;;;;;1999.90;999.90;;;10.50;99.90;;;;;;5053469;28;20675;-42
2021/05/16 03:09:21;;;;;;;1999.90;999.90;;;10.50;99.90;;;;;;5053419;28;20624;-42
2021/05/16 03:11:48;;;;;;;1999.90;999.90;;;10.40;99.90;;;;;;5053463;28;20173;-42
2021/05/16 03:14:16;;;;;;;1999.90;999.90;;;10.30;99.90;;;;;;5053538;28;20165;-42
2021/05/16 03:16:43;;;;;;;1999.90;999.90;;;10.30;99.90;;;;;;5053436;28;20616;-42
2021/05/16 03:19:10;;;;;;;1999.90;999.90;;;10.30;99.90;;;;;;5053367;28;20176;-44
2021/05/16 03:21:37;;;;;;;1999.90;999.90;;;10.30;99.90;;;;;;5053059;28;20176;-42
2021/05/16 03:24:04;;;;;;;1999.90;999.90;;;10.20;99.90;;;;;;5053531;28;20569;-42
2021/05/16 03:26:31;;;;;;;1999.90;999.90;;;10.20;99.90;;;;;;5053066;28;20213;-56
2021/05/16 03:28:58;;;;;;;1999.90;999.90;;;10.30;99.90;;;;;;5053002;28;20221;-42
2021/05/16 03:31:24;;;;;;;1999.90;999.90;;;10.20;99.90;;;;;;5053224;28;20580;-42
2021/05/16 03:33:51;;;;;;;1999.90;999.90;;;10.20;99.90;;;;;;5053095;28;20165;-42
2021/05/16 03:36:18;;;;;;;1999.90;999.90;;;10.20;99.90;;;;;;5053183;28;20581;-42
2021/05/16 03:38:45;;;;;;;1999.90;999.90;;;10.30;99.90;;;;;;5053093;28;20165;-42
2021/05/16 03:41:12;;;;;;;1999.90;999.90;;;10.20;99.90;;;;;;5053002;28;20180;-42
2021/05/16 03:43:38;;;;;;;1999.90;999.90;;;10.10;99.90;;;;;;5052965;28;20176;-42
2021/05/16 03:46:05;;;;;;;1999.90;999.90;;;10.10;99.90;;;;;;5053078;28;20524;-46
2021/05/16 03:48:32;;;;;;;1999.90;999.90;;;10.10;99.90;;;;;;5052919;28;20176;-55
2021/05/16 03:50:59;;;;;;;1999.90;999.90;;;10.10;99.90;;;;;;5052812;28;20572;-42
2021/05/16 03:53:26;;;;;;;1999.90;999.90;;;10.00;99.90;;;;;;5052845;28;20172;-44
2021/05/16 03:55:53;;;;;;;1999.90;999.90;;;10.00;99.90;;;;;;5052776;28;20188;-44
2021/05/16 03:58:20;;;;;;;1999.90;999.90;;;10.10;99.90;;;;;;5052866;28;20180;-43
2021/05/16 04:00:46;;;;;;;1999.90;999.90;;;10.20;99.90;;;;;;5052884;28;20650;-56
2021/05/16 04:03:13;;;;;;;1999.90;999.90;;;10.20;99.90;;;;;;5052702;28;20165;-43
2021/05/16 04:05:40;;;;;;;1999.90;999.90;;;10.10;99.90;;;;;;5052653;28;20224;-42
2021/05/16 04:08:07;;;;;;;1999.90;999.90;;;10.10;99.90;;;;;;5055183;28;20168;-43
2021/05/16 04:10:34;;;;;;;1999.90;999.90;;;10.00;99.90;;;;;;5056906;28;20169;-56
2021/05/16 04:13:01;;;;;;;1999.90;999.90;;;10.00;99.90;;;;;;5056874;28;20240;-43
2021/05/16 04:15:28;;;;;;;1999.90;999.90;;;10.00;99.90;;;;;;5056794;28;20165;-43
2021/05/16 04:17:55;;;;;;;1999.90;999.90;;;10.00;99.90;;;;;;5056689;28;20172;-52
2021/05/16 04:20:21;;;;;;;1999.90;999.90;;;10.00;99.90;;;;;;5056807;28;20700;-43
2021/05/16 04:22:48;;;;;;;1999.90;999.90;;;10.00;99.90;;;;;;5056766;28;20169;-42
2021/05/16 04:25:15;;;;;;;1999.90;999.90;;;9.90;99.90;;;;;;5056553;28;20246;-44
2021/05/16 04:27:42;;;;;;;1999.90;999.90;;;9.90;99.90;;;;;;5056303;28;20270;-43
2021/05/16 04:30:10;;;;;;;1999.90;999.90;;;9.90;99.90;;;;;;5056530;28;20624;-43
2021/05/16 04:32:36;;;;;;;1999.90;999.90;;;9.90;99.90;;;;;;5056483;28;20165;-43
2021/05/16 04:35:04;;;;;;;1999.90;999.90;;;9.90;99.90;;;;;;5056403;28;20188;-42
2021/05/16 04:37:30;;;;;;;1999.90;999.90;;;9.90;99.90;;;;;;5056413;28;20168;-43
2021/05/16 04:39:57;;;;;;;1999.90;999.90;;;9.90;99.90;;;;;;5056304;28;20163;-51
2021/05/16 04:42:24;;;;;;;1999.90;999.90;;;9.80;99.90;;;;;;5056377;28;20179;-42
2021/05/16 04:44:51;;;;;;;1999.90;999.90;;;9.70;99.90;;;;;;5056235;28;20173;-42
2021/05/16 04:47:18;;;;;;;1999.90;999.90;;;9.80;99.90;;;;;;5056224;28;20338;-47
2021/05/16 04:49:44;;;;;;;1999.90;999.90;;;9.80;99.90;;;;;;5056156;28;20197;-57
2021/05/16 04:52:12;;;;;;;1999.90;999.90;;;9.80;99.90;;;;;;5056049;28;20207;-43
2021/05/16 04:54:39;;;;;;;1999.90;999.90;;;9.80;99.90;;;;;;5056024;28;20177;-43
2021/05/16 04:57:06;;;;;;;1999.90;999.90;;;9.80;99.90;;;;;;5055997;28;20648;-42
2021/05/16 04:59:33;;;;;;;1999.90;999.90;;;9.80;99.90;;;;;;5056217;28;20525;-43
2021/05/16 05:02:00;;;;;;;1999.90;999.90;;;9.90;99.90;;;;;;5055852;28;20183;-42
2021/05/16 05:04:27;;;;;;;1999.90;999.90;;;9.80;99.90;;;;;;5056010;28;20655;-48
2021/05/16 05:06:53;;;;;;;1999.90;999.90;;;9.80;99.90;;;;;;5055911;28;20287;-42
2021/05/16 05:09:20;;;;;;;1999.90;999.90;;;9.80;99.90;;;;;;5055781;28;20703;-42
2021/05/16 05:11:48;;;;;;;1999.90;999.90;;;9.80;99.90;;;;;;5055826;28;20519;-42
2021/05/16 05:14:14;;;;;;;1999.90;999.90;;;9.70;99.90;;;;;;5055697;28;20177;-42
2021/05/16 05:16:41;;;;;;;1999.90;999.90;;;9.80;99.90;;;;;;5055995;28;20493;-42
2021/05/16 05:19:08;;;;;;;1999.90;999.90;;;9.70;99.90;;;;;;5055210;28;20545;-42
2021/05/16 05:21:35;;;;;;;1999.90;999.90;;;9.70;99.90;;;;;;5055472;28;20199;-42
2021/05/16 05:24:02;;;;;;;1999.90;999.90;;;9.70;99.90;;;;;;5055508;28;20540;-42
2021/05/16 05:26:29;;;;;;;1999.90;999.90;;;9.70;99.90;;;;;;5055267;28;20216;-55
2021/05/16 05:28:56;;;;;;;1999.90;999.90;;;9.70;99.90;;;;;;5055305;28;20220;-42
2021/05/16 05:31:23;;;;;;;1999.90;999.90;;;9.60;99.90;;;;;;5055390;28;20173;-45
2021/05/16 05:33:49;;;;;;;1999.90;999.90;;;9.50;99.90;;;;;;5055317;28;20200;-44
2021/05/16 05:36:16;;;;;;;1999.90;999.90;;;9.50;99.90;;;;;;5055364;28;20239;-58
2021/05/16 05:38:43;;;;;;;1999.90;999.90;;;9.40;99.90;;;;;;5055175;28;20177;-44
2021/05/16 05:41:10;;;;;;;1999.90;999.90;;;9.30;99.90;;;;;;5055095;28;20613;-43
2021/05/16 05:43:37;;;;;;;1999.90;999.90;;;9.30;99.90;;;;;;5054952;28;20165;-44
2021/05/16 05:46:03;;;;;;;1999.90;999.90;;;9.30;99.90;;;;;;5054822;28;20204;-58
2021/05/16 05:48:30;;;;;;;1999.90;999.90;;;9.30;99.90;;;;;;5054976;28;20632;-43
2021/05/16 05:50:58;;;;;;;1999.90;999.90;;;9.30;99.90;;;;;;5055059;28;20180;-58
2021/05/16 05:53:25;;;;;;;1999.90;999.90;;;9.30;99.90;;;;;;5053705;28;20170;-58
2021/05/16 05:55:52;;;;;;;1999.90;999.90;;;9.30;99.90;;;;;;5054874;28;20248;-57
2021/05/16 05:58:18;;;;;;;1999.90;999.90;;;9.30;99.90;;;;;;5054251;28;20268;-43
2021/05/16 06:00:45;;;;;;;1999.90;999.90;;;9.30;99.90;;;;;;5054823;28;20252;-43
2021/05/16 06:03:12;;;;;;;1999.90;999.90;;;9.40;99.90;;;;;;5054653;28;20196;-58
2021/05/16 06:05:39;;;;;;;1999.90;999.90;;;9.40;99.90;;;;;;5054320;28;20196;-57
2021/05/16 06:08:06;;;;;;;1999.90;999.90;;;9.40;99.90;;;;;;5054459;28;20191;-43
2021/05/16 06:10:33;;;;;;;1999.90;999.90;;;9.40;99.90;;;;;;5054633;28;20169;-51
2021/05/16 06:12:59;;;;;;;1999.90;999.90;;;9.30;99.90;;;;;;5054621;28;20161;-43
2021/05/16 06:15:26;;;;;;;1999.90;999.90;;;9.40;99.90;;;;;;5054493;28;20227;-44
2021/05/16 06:17:53;;;;;;;1999.90;999.90;;;9.40;99.90;;;;;;5054635;28;20173;-45
2021/05/16 06:20:20;;;;;;;1999.90;999.90;;;9.40;99.90;;;;;;5054115;28;20168;-44
2021/05/16 06:22:47;;;;;;;1999.90;999.90;;;9.40;99.90;;;;;;5054300;28;20169;-58
2021/05/16 06:25:13;;;;;;;1999.90;999.90;;;9.30;99.90;;;;;;5054422;28;20165;-59
2021/05/16 06:27:40;;;;;;;1999.90;999.90;;;9.30;99.90;;;;;;5054109;28;20636;-43
2021/05/16 06:30:07;;;;;;;1999.90;999.90;;;9.40;99.90;;;;;;5053489;28;20156;-57
2021/05/16 06:32:34;;;;;;;1999.90;999.90;;;9.50;99.90;;;;;;5054190;28;20534;-53
2021/05/16 06:35:01;;;;;;;1999.90;999.90;;;9.50;99.90;;;;;;5054246;28;20546;-43
2021/05/16 06:37:28;;;;;;;1999.90;999.90;;;9.60;99.90;;;;;;5054188;28;20320;-42
2021/05/16 06:39:55;;;;;;;1999.90;999.90;;;9.70;99.90;;;;;;5054087;28;20252;-57
2021/05/16 06:42:22;;;;;;;1999.90;999.90;;;9.70;99.90;;;;;;5054324;28;20564;-46
2021/05/16 06:44:48;;;;;;;1999.90;999.90;;;9.70;99.90;;;;;;5053894;28;20166;-45
2021/05/16 06:47:15;;;;;;;1999.90;999.90;;;9.70;99.90;;;;;;5053878;28;20211;-44
2021/05/16 06:49:42;;;;;;;1999.90;999.90;;;9.90;99.90;;;;;;5053790;28;20180;-45
2021/05/16 06:52:09;;;;;;;1999.90;999.90;;;9.90;99.90;;;;;;5053865;28;20212;-56
2021/05/16 06:54:36;;;;;;;1999.90;999.90;;;9.90;99.90;;;;;;5053884;28;20529;-44
2021/05/16 06:57:03;;;;;;;1999.90;999.90;;;10.00;99.90;;;;;;5053901;28;20161;-57
2021/05/16 06:59:29;;;;;;;1999.90;999.90;;;10.10;99.90;;;;;;5053972;28;20191;-42
2021/05/16 07:01:56;;;;;;;1999.90;999.90;;;10.30;99.90;;;;;;5053596;28;20523;-56
2021/05/16 07:04:23;;;;;;;1999.90;999.90;;;10.30;99.90;;;;;;5053070;28;20219;-42
2021/05/16 07:06:50;;;;;;;1999.90;999.90;;;10.40;99.90;;;;;;5053492;28;20232;-45
2021/05/16 07:09:17;;;;;;;1999.90;999.90;;;10.50;99.90;;;;;;5053550;28;20716;-53
2021/05/16 07:11:44;;;;;;;1999.90;999.90;;;10.60;99.90;;;;;;5053626;28;20203;-44
2021/05/16 07:14:10;;;;;;;1999.90;999.90;;;10.70;99.90;;;;;;5053841;28;20200;-42
2021/05/16 07:16:38;;;;;;;1999.90;999.90;;;10.80;99.90;;;;;;5053410;28;20670;-42
2021/05/16 07:19:05;;;;;;;1999.90;999.90;;;11.00;99.90;;;;;;5053426;28;20295;-42
2021/05/16 07:21:32;;;;;;;1999.90;999.90;;;11.10;99.90;;;;;;5053129;28;20264;-45
2021/05/16 07:23:59;;;;;;;1999.90;999.90;;;11.40;99.90;;;;;;5053097;28;20181;-56
2021/05/16 07:26:25;;;;;;;1999.90;999.90;;;11.50;99.90;;;;;;5052939;28;20203;-42
2021/05/16 07:28:52;;;;;;;1999.90;999.90;;;11.60;99.90;;;;;;5052823;28;20220;-42
2021/05/16 07:31:19;;;;;;;1999.90;999.90;;;11.70;99.90;;;;;;5053079;28;20644;-56
2021/05/16 07:33:46;;;;;;;1999.90;999.90;;;11.80;99.90;;;;;;5052956;28;20639;-48
2021/05/16 07:36:14;;;;;;;1999.90;999.90;;;11.90;99.90;;;;;;5053087;28;20323;-42
2021/05/16 07:38:41;;;;;;;1999.90;999.90;;;12.00;99.90;;;;;;5052901;28;20640;-41
2021/05/16 07:41:08;;;;;;;1999.90;999.90;;;12.00;99.90;;;;;;5052908;28;20184;-56
2021/05/16 07:43:35;;;;;;;1999.90;999.90;;;12.10;99.90;;;;;;5053004;28;20659;-42
2021/05/16 07:46:02;;;;;;;1999.90;999.90;;;12.20;99.90;;;;;;5052819;28;20197;-42
2021/05/16 07:48:29;;;;;;;1999.90;999.90;;;12.40;99.90;;;;;;5052917;28;20170;-56
2021/05/16 07:50:57;;;;;;;1999.90;999.90;;;12.50;99.90;;;;;;5052881;28;20219;-41
2021/05/16 07:53:25;;;;;;;1999.90;999.90;;;12.70;99.90;;;;;;5052896;28;20628;-56
2021/05/16 07:55:53;;;;;;;1999.90;999.90;;;12.90;99.90;;;;;;5052655;28;20173;-46
2021/05/16 07:58:20;;;;;;;1999.90;999.90;;;13.10;99.90;;;;;;5052595;28;20524;-54
2021/05/16 08:00:47;;;;;;;1999.90;999.90;;;13.20;99.90;;;;;;5052508;28;20187;-43
2021/05/16 08:03:14;;;;;;;1999.90;999.90;;;13.30;99.90;;;;;;5052753;28;20170;-50
2021/05/16 08:05:40;;;;;;;1999.90;999.90;;;13.30;99.90;;;;;;5053139;28;20197;-43
2021/05/16 08:08:07;;;;;;;1999.90;999.90;;;13.60;99.90;;;;;;5052728;28;20176;-45
2021/05/16 08:10:34;;;;;;;1999.90;999.90;;;13.80;99.90;;;;;;5052018;28;20165;-42
2021/05/16 08:13:01;;;;;;;1999.90;999.90;;;13.90;99.90;;;;;;5052471;28;20176;-49
2021/05/16 08:15:28;;;;;;;1999.90;999.90;;;14.00;99.90;;;;;;5052003;28;20184;-43
2021/05/16 08:17:55;;;;;;;1999.90;999.90;;;14.10;99.90;;;;;;5052272;28;20166;-49
2021/05/16 08:20:22;;;;;;;1999.90;999.90;;;14.20;99.90;;;;;;5052265;28;20174;-55
2021/05/16 08:22:49;;;;;;;1999.90;999.90;;;14.20;99.90;;;;;;5052384;28;20530;-42
2021/05/16 08:25:17;;;;;;;1999.90;999.90;;;14.30;99.90;;;;;;5052070;28;20640;-46
2021/05/16 08:27:44;;;;;;;1999.90;999.90;;;14.30;99.90;;;;;;5051964;28;20299;-42
2021/05/16 08:30:12;;;;;;;1999.90;999.90;;;14.40;99.90;;;;;;5052373;28;20175;-42
2021/05/16 08:32:39;;;;;;;1999.90;999.90;;;14.60;99.90;;;;;;5052304;28;20211;-49
2021/05/16 08:35:06;;;;;;;1999.90;999.90;;;14.80;99.90;;;;;;5052330;28;20541;-44
2021/05/16 08:37:36;;;;;;;1999.90;999.90;;;14.90;99.90;;;;;;5052177;28;20227;-42
2021/05/16 08:40:07;;;;;;;1999.90;999.90;;;15.00;99.90;;;;;;5052104;28;20581;-50
2021/05/16 08:42:34;;;;;;;1999.90;999.90;;;15.00;99.90;;;;;;5052071;28;20208;-42
2021/05/16 08:45:01;;;;;;;1999.90;999.90;;;15.20;99.90;;;;;;5052187;28;20555;-42
2021/05/16 08:47:29;;;;;;;1999.90;999.90;;;15.30;99.90;;;;;;5052040;28;20173;-42
2021/05/16 08:50:02;;;;;;;1999.90;999.90;;;15.30;99.90;;;;;;5050611;28;20203;-44
2021/05/16 08:52:29;;;;;;;1999.90;999.90;;;15.30;99.90;;;;;;5051970;28;20160;-45
2021/05/16 08:54:56;;;;;;;1999.90;999.90;;;15.50;99.90;;;;;;5055431;28;20183;-43
2021/05/16 08:57:23;;;;;;;1999.90;999.90;;;15.60;99.90;;;;;;5055614;28;20670;-56
2021/05/16 09:00:14;;;;;;;1999.90;999.90;;;15.60;99.90;;;;;;5055022;28;20192;-45
2021/05/16 09:03:10;;;;;;;1999.90;999.90;;;15.70;99.90;;;;;;5050469;28;20543;-49
2021/05/16 09:05:48;;;;;;;1999.90;999.90;;;15.70;99.90;;;;;;5055506;28;20598;-51
2021/05/16 09:08:20;;;;;;;1999.90;999.90;;;15.80;99.90;;;;;;5055851;28;20628;-57
2021/05/16 09:10:48;;;;;;;1999.90;999.90;;;15.90;99.90;;;;;;5055678;28;20682;-45
2021/05/16 09:13:22;;;;;;;1999.90;999.90;;;15.90;99.90;;;;;;5055727;28;20180;-45
2021/05/16 09:16:09;;;;;;;1999.90;999.90;;;16.00;99.90;;;;;;5055601;28;20635;-57
2021/05/16 09:18:41;;;;;;;1999.90;999.90;;;16.20;99.90;;;;;;5055709;28;20177;-45
2021/05/16 09:21:35;;;;;;;1999.90;999.90;;;16.30;99.90;;;;;;5055579;28;20164;-43
2021/05/16 09:24:10;;;;;;;1999.90;999.90;;;16.50;99.90;;;;;;5053771;28;20193;-58
2021/05/16 09:26:51;;;;;;;1999.90;999.90;;;16.60;99.90;;;;;;5055440;28;20196;-53
2021/05/16 09:29:33;;;;;;;1999.90;999.90;;;16.80;99.90;;;;;;5055168;28;20311;-46
2021/05/16 09:32:03;;;;;;;1999.90;999.90;;;16.90;99.90;;;;;;5055149;28;20516;-45
2021/05/16 09:34:30;;;;;;;1999.90;999.90;;;17.10;99.90;;;;;;5055114;28;20170;-47
2021/05/16 09:36:57;;;;;;;1999.90;999.90;;;17.10;99.90;;;;;;5055134;28;20185;-46
2021/05/16 09:39:32;;;;;;;1999.90;999.90;;;17.20;98.70;;;;;;5055034;28;20173;-48
2021/05/16 09:42:07;;;;;;;1999.90;999.90;;;17.10;99.10;;;;;;5054969;28;20623;-46
2021/05/16 09:44:44;;;;;;;1999.90;999.90;;;17.10;98.80;;;;;;5054916;28;20172;-45
2021/05/16 09:47:23;;;;;;;1999.90;999.90;;;17.30;98.30;;;;;;5054774;28;20667;-46
2021/05/16 09:50:15;;;;;;;1999.90;999.90;;;17.40;96.80;;;;;;5054833;28;20170;-45
2021/05/16 09:52:59;;;;;;;1999.90;999.90;;;17.40;96.70;;;;;;5054805;28;20158;-45
2021/05/16 09:55:26;;;;;;;1999.90;999.90;;;17.50;93.10;;;;;;5054773;28;20165;-56
2021/05/16 09:57:53;;;;;;;1999.90;999.90;;;17.40;94.00;;;;;;5054771;28;20529;-43
2021/05/16 10:00:21;;;;;;;1999.90;999.90;;;17.50;95.90;;;;;;5054813;28;20174;-44
2021/05/16 10:02:47;;;;;;;1999.90;999.90;;;17.80;96.70;;;;;;5054861;28;20532;-57
2021/05/16 10:05:15;;;;;;;1999.90;999.90;;;18.00;95.80;;;;;;5053244;28;20195;-43
2021/05/16 10:07:42;;;;;;;1999.90;999.90;;;18.20;93.10;;;;;;5054462;28;20577;-44
2021/05/16 10:10:13;;;;;;;1999.90;999.90;;;18.40;92.20;;;;;;5054524;28;20165;-46
2021/05/16 10:12:41;;;;;;;1999.90;999.90;;;18.40;94.20;;;;;;5054641;28;20663;-43
2021/05/16 10:15:23;;;;;;;1999.90;999.90;;;18.50;92.90;;;;;;5053209;28;20195;-43
2021/05/16 10:17:57;;;;;;;1999.90;999.90;;;18.80;93.40;;;;;;5054608;28;20223;-44
2021/05/16 10:20:26;;;;;;;1999.90;999.90;;;18.80;92.70;;;;;;5054431;28;20243;-43
2021/05/16 10:22:58;;;;;;;1999.90;999.90;;;18.60;89.70;;;;;;5054254;28;20172;-43
2021/05/16 10:25:44;;;;;;;1999.90;999.90;;;18.50;87.40;;;;;;5054062;28;20200;-52
2021/05/16 10:28:16;;;;;;;1999.90;999.90;;;18.60;78.90;;;;;;5053857;28;20278;-43
2021/05/16 10:31:10;;;;;;;1999.90;999.90;;;18.60;78.30;;;;;;5054078;28;20161;-43
2021/05/16 10:33:42;;;;;;;1999.90;999.90;;;18.60;75.40;;;;;;5053845;28;20249;-43
2021/05/16 10:36:09;;;;;;;1999.90;999.90;;;18.70;76.60;;;;;;5053863;28;20236;-43
2021/05/16 10:38:43;;;;;;;1999.90;999.90;;;18.90;76.30;;;;;;5053835;28;20632;-55
2021/05/16 10:41:18;;;;;;;1999.90;999.90;;;19.10;75.70;;;;;;5053908;28;20546;-45
2021/05/16 10:43:50;;;;;;;1999.90;999.90;;;19.20;76.10;;;;;;5053813;28;20222;-57
2021/05/16 10:46:37;;;;;;;1999.90;999.90;;;19.20;73.10;;;;;;5053499;28;20213;-54
2021/05/16 10:49:27;;;;;;;1999.90;999.90;;;19.10;72.50;;;;;;5053740;28;20166;-54
2021/05/16 10:51:55;;;;;;;1999.90;999.90;;;19.00;75.30;;;;;;5053678;28;20172;-44
2021/05/16 10:54:33;;;;;;;1999.90;999.90;;;19.10;69.40;;;;;;5053779;28;20505;-53
2021/05/16 10:57:13;;;;;;;1999.90;999.90;;;19.40;70.10;;;;;;5053779;28;20172;-44
2021/05/16 10:59:43;;;;;;;1999.90;999.90;;;19.30;72.10;;;;;;5053670;28;20642;-44
2021/05/16 11:02:10;;;;;;;1999.90;999.90;;;19.10;71.40;;;;;;5053407;28;20202;-44
2021/05/16 11:04:53;;;;;;;1999.90;999.90;;;19.20;74.00;;;;;;5053468;28;20161;-44
2021/05/16 11:07:36;;;;;;;1999.90;999.90;;;19.50;72.30;;;;;;5053272;28;20646;-45
2021/05/16 11:10:29;;;;;;;1999.90;999.90;;;19.70;70.60;;;;;;5053363;28;20161;-59
2021/05/16 11:13:12;;;;;;;1999.90;999.90;;;19.90;69.40;;;;;;5053885;28;20177;-51
2021/05/16 11:15:49;;;;;;;1999.90;999.90;;;20.00;73.20;;;;;;5053193;28;20162;-43
2021/05/16 11:18:20;;;;;;;1999.90;999.90;;;20.10;68.20;;;;;;5053441;28;20172;-56
2021/05/16 11:20:59;;;;;;;1999.90;999.90;;;20.10;71.20;;;;;;5053460;28;20238;-43
2021/05/16 11:23:36;;;;;;;1999.90;999.90;;;20.20;68.60;;;;;;5053746;28;20161;-44
2021/05/16 11:26:05;;;;;;;1999.90;999.90;;;20.20;68.60;;;;;;5053130;28;20258;-44
2021/05/16 11:28:35;;;;;;;1999.90;999.90;;;20.10;69.90;;;;;;5052947;28;20216;-44
2021/05/16 11:31:17;;;;;;;1999.90;999.90;;;20.00;70.10;;;;;;5053273;28;20307;-43
2021/05/16 11:33:46;;;;;;;1999.90;999.90;;;19.80;69.60;;;;;;5053174;28;20197;-43
2021/05/16 11:36:15;;;;;;;1999.90;999.90;;;19.80;68.20;;;;;;5053057;28;20173;-43
2021/05/16 11:38:45;;;;;;;1999.90;999.90;;;19.90;68.60;;;;;;5052856;28;20612;-43
2021/05/16 11:41:30;;;;;;;1999.90;999.90;;;20.00;70.30;;;;;;5052980;28;20223;-57
2021/05/16 11:43:58;;;;;;;1999.90;999.90;;;20.10;69.60;;;;;;5053173;28;20183;-45
2021/05/16 11:46:28;;;;;;;1999.90;999.90;;;19.70;68.40;;;;;;5052983;28;20247;-47
2021/05/16 11:48:55;;;;;;;1999.90;999.90;;;19.10;71.00;;;;;;5053183;28;20165;-50
2021/05/16 11:51:22;;;;;;;1999.90;999.90;;;18.80;75.70;;;;;;5052819;28;20173;-47
2021/05/16 11:53:55;;;;;;;1999.90;999.90;;;18.90;77.00;;;;;;5052827;28;20161;-44
2021/05/16 11:56:24;;;;;;;1999.90;999.90;;;19.00;78.40;;;;;;5052767;28;20192;-54
2021/05/16 11:58:56;;;;;;;1999.90;999.90;;;19.10;76.90;;;;;;5052759;28;20169;-58
2021/05/16 12:01:27;;;;;;;1999.90;999.90;;;19.10;77.80;;;;;;5052708;28;20173;-44
2021/05/16 12:04:08;;;;;;;1999.90;999.90;;;19.20;76.60;;;;;;5052742;28;20149;-44
2021/05/16 12:06:56;;;;;;;1999.90;999.90;;;19.20;76.90;;;;;;5052674;28;20596;-44
2021/05/16 12:09:25;;;;;;;1999.90;999.90;;;19.00;77.20;;;;;;5052660;28;20236;-44
2021/05/16 12:11:54;;;;;;;1999.90;999.90;;;18.90;75.40;;;;;;5052485;28;20254;-43